Time;durP1;ratioP1;P1;durP2;ratioP2;P2;SDS_P1;SDS_P2;PMS_P1;PMS_P2;Temp;Humidity;BMP_temperature;BMP_pressure;BME280_temperature;BME280_humidity;BME280_pressure;Samples;Min_cycle;Max_cycle;Signal;HPM_P1;HPM_P2
2022/09/08 00:00:49;;;;;;;3.42;2.77;;;;;;;8.71;70.41;101383.69;1825285;78;20906;-86
2022/09/08 00:03:17;;;;;;;3.85;2.95;;;;;;;8.71;70.42;101382.39;1825370;78;21248;-83
2022/09/08 00:05:59;;;;;;;9.55;3.33;;;;;;;8.73;70.42;101387.53;1825029;78;20863;-83
2022/09/08 00:08:25;;;;;;;6.55;3.08;;;;;;;8.73;70.45;101388.00;1825049;78;21348;-84
2022/09/08 00:10:53;;;;;;;5.97;4.62;;;;;;;8.73;70.45;101393.23;1825087;78;20895;-85
2022/09/08 00:13:21;;;;;;;3.65;3.00;;;;;;;8.74;70.54;101390.98;1825368;78;21270;-85
2022/09/08 00:15:47;;;;;;;6.08;3.10;;;;;;;8.75;70.64;101386.17;1825133;78;21232;-83
2022/09/08 00:18:14;;;;;;;5.00;3.45;;;;;;;8.76;70.63;101388.73;1825135;78;20863;-85
2022/09/08 00:20:40;;;;;;;4.90;3.55;;;;;;;8.77;70.62;101383.05;1825112;78;20912;-85
2022/09/08 00:23:08;;;;;;;7.12;3.80;;;;;;;8.76;70.69;101383.94;1825127;78;21401;-85
2022/09/08 00:25:35;;;;;;;4.05;3.20;;;;;;;8.75;70.67;101379.64;1825160;78;20911;-85
2022/09/08 00:28:02;;;;;;;7.28;3.08;;;;;;;8.74;70.60;101373.56;1825268;78;21302;-84
2022/09/08 00:30:29;;;;;;;5.17;2.70;;;;;;;8.75;70.20;101375.25;1822932;78;20920;-85
2022/09/08 00:32:55;;;;;;;6.20;3.25;;;;;;;8.79;69.94;101373.38;1821686;78;20903;-85
2022/09/08 00:35:22;;;;;;;4.65;2.92;;;;;;;8.83;69.61;101372.34;1821726;78;20908;-84
2022/09/08 00:37:52;;;;;;;4.33;2.58;;;;;;;8.87;69.35;101375.20;1821704;78;20920;-81
2022/09/08 00:40:18;;;;;;;6.28;2.92;;;;;;;8.89;69.06;101372.95;1821836;78;21480;-83
2022/09/08 00:42:44;;;;;;;4.45;2.85;;;;;;;8.92;69.17;101374.58;1823142;78;20924;-84
2022/09/08 00:45:12;;;;;;;9.53;3.27;;;;;;;8.96;69.10;101372.23;1824362;78;20883;-84
2022/09/08 00:47:47;;;;;;;4.80;3.58;;;;;;;8.99;68.99;101368.64;1822148;78;20915;-85
2022/09/08 00:50:23;;;;;;;4.93;2.97;;;;;;;9.03;68.90;101368.91;1821890;78;20872;-86
2022/09/08 00:53:00;;;;;;;4.47;3.42;;;;;;;9.05;68.66;101372.31;1821678;78;21162;-86
2022/09/08 00:55:25;;;;;;;6.55;2.83;;;;;;;9.07;68.42;101368.72;1821391;78;20883;-85
2022/09/08 00:57:51;;;;;;;10.05;3.70;;;;;;;9.09;68.26;101366.89;1821712;78;20907;-86
2022/09/08 01:00:19;;;;;;;6.65;2.92;;;;;;;9.11;68.15;101358.95;1821744;78;20982;-85
2022/09/08 01:02:47;;;;;;;7.55;3.67;;;;;;;9.12;68.32;101369.83;1821781;78;20978;-86
2022/09/08 01:05:16;;;;;;;8.55;4.55;;;;;;;9.13;68.24;101368.91;1821687;78;21059;-85
2022/09/08 01:13:38;;;;;;;14.05;7.70;;;;;;;9.15;67.92;101364.45;1821658;78;20924;-85
2022/09/08 01:16:08;;;;;;;19.50;9.03;;;;;;;9.16;67.82;101354.83;1816493;78;20888;-83
2022/09/08 01:18:35;;;;;;;34.03;14.13;;;;;;;9.16;67.87;101359.63;1821695;78;22063;-85
2022/09/08 01:21:13;;;;;;;35.50;17.30;;;;;;;9.16;67.80;101354.40;1821645;78;20907;-85
2022/09/08 01:24:09;;;;;;;40.43;19.35;;;;;;;9.17;67.69;101350.85;1821759;78;20943;-85
2022/09/08 01:27:07;;;;;;;35.80;14.63;;;;;;;9.17;67.56;101352.16;1821579;78;21080;-84
2022/09/08 01:29:33;;;;;;;36.13;14.78;;;;;;;9.18;67.23;101355.19;1821580;78;20904;-85
2022/09/08 01:32:00;;;;;;;23.98;10.88;;;;;;;9.20;66.93;101353.33;1821774;78;21211;-85
2022/09/08 01:34:27;;;;;;;20.52;10.20;;;;;;;9.25;66.51;101350.52;1821568;78;20895;-85
2022/09/08 01:36:58;;;;;;;24.57;9.30;;;;;;;9.29;66.15;101353.39;1816645;78;20922;-84
2022/09/08 01:39:25;;;;;;;14.60;8.38;;;;;;;9.33;65.83;101354.50;1821739;78;20927;-86
2022/09/08 01:41:51;;;;;;;17.12;7.85;;;;;;;9.37;65.63;101347.38;1821672;78;20907;-84
2022/09/08 01:44:18;;;;;;;13.88;6.55;;;;;;;9.42;65.36;101344.09;1821548;78;21801;-86
2022/09/08 01:46:45;;;;;;;14.05;6.40;;;;;;;9.46;65.13;101335.66;1821573;78;20884;-85
2022/09/08 01:49:11;;;;;;;11.93;6.65;;;;;;;9.50;64.84;101332.00;1822673;78;20880;-84
2022/09/08 01:51:38;;;;;;;12.35;5.60;;;;;;;9.55;64.62;101333.95;1823301;78;20892;-85
2022/09/08 01:54:05;;;;;;;11.18;5.53;;;;;;;9.59;64.38;101324.20;1821754;78;20914;-86
2022/09/08 01:56:32;;;;;;;9.53;5.47;;;;;;;9.64;64.16;101322.21;1821545;78;21852;-85
2022/09/08 01:58:59;;;;;;;9.85;5.35;;;;;;;9.67;63.93;101322.94;1821586;78;20923;-84
2022/09/08 02:01:25;;;;;;;11.38;5.40;;;;;;;9.72;63.77;101318.80;1821929;78;21314;-86
2022/09/08 02:03:51;;;;;;;9.63;4.50;;;;;;;9.75;63.65;101312.10;1821688;78;21394;-86
2022/09/08 02:06:18;;;;;;;13.45;6.45;;;;;;;9.79;63.50;101310.20;1822566;78;20892;-85
2022/09/08 02:08:52;;;;;;;9.03;6.03;;;;;;;9.81;63.41;101310.52;1823695;78;20951;-85
2022/09/08 02:11:19;;;;;;;10.18;5.03;;;;;;;9.83;63.35;101309.16;1824432;78;20888;-81
2022/09/08 02:13:46;;;;;;;21.50;6.05;;;;;;;9.86;63.26;101312.92;1824340;78;20974;-85
2022/09/08 02:16:14;;;;;;;10.48;5.12;;;;;;;9.88;63.24;101314.55;1821597;78;20844;-82
2022/09/08 02:18:40;;;;;;;10.35;5.40;;;;;;;9.88;63.26;101309.31;1821946;78;20892;-86
2022/09/08 02:21:15;;;;;;;9.33;6.00;;;;;;;9.90;63.14;101314.02;1821914;78;21093;-86
2022/09/08 02:23:44;;;;;;;9.20;5.25;;;;;;;9.92;63.15;101317.89;1752163;80;20915;-85
2022/09/08 02:26:18;;;;;;;9.80;5.17;;;;;;;9.91;63.30;101313.09;1823650;78;20955;-84
2022/09/08 02:28:45;;;;;;;9.33;5.00;;;;;;;9.89;63.47;101314.08;1822928;78;20876;-84
2022/09/08 02:31:11;;;;;;;8.60;5.35;;;;;;;9.87;63.63;101315.48;1824147;78;20832;-86
2022/09/08 02:33:39;;;;;;;11.00;5.40;;;;;;;9.83;63.77;101316.54;1825275;78;21215;-84
2022/09/08 02:36:06;;;;;;;11.10;4.60;;;;;;;9.80;63.75;101312.73;1825277;78;20947;-85
2022/09/08 02:38:34;;;;;;;8.18;4.80;;;;;;;9.77;63.64;101310.27;1825339;78;20871;-86
2022/09/08 02:41:01;;;;;;;12.55;5.00;;;;;;;9.73;63.60;101308.70;1825337;78;20979;-85
2022/09/08 02:43:29;;;;;;;10.85;5.70;;;;;;;9.70;63.66;101304.92;1825357;78;20942;-85
2022/09/08 02:45:55;;;;;;;10.82;5.08;;;;;;;9.67;63.77;101308.53;1825284;78;21246;-86
2022/09/08 02:48:23;;;;;;;9.83;4.72;;;;;;;9.65;63.79;101305.13;1825137;78;21484;-86
2022/09/08 02:50:50;;;;;;;8.08;5.33;;;;;;;9.63;63.93;101311.36;1825240;78;20946;-85
2022/09/08 02:53:16;;;;;;;6.50;4.50;;;;;;;9.61;64.08;101313.20;1825401;78;21014;-84
2022/09/08 02:55:43;;;;;;;6.55;5.12;;;;;;;9.58;64.25;101311.54;1825555;78;21057;-86
2022/09/08 02:58:10;;;;;;;9.20;5.62;;;;;;;9.54;64.36;101309.53;1825379;78;21774;-86
2022/09/08 03:00:38;;;;;;;10.98;5.85;;;;;;;9.50;64.47;101307.97;1825156;78;21373;-86
2022/09/08 03:03:05;;;;;;;8.08;4.53;;;;;;;9.50;64.53;101311.05;1825287;78;20951;-86
2022/09/08 03:05:32;;;;;;;8.28;4.90;;;;;;;9.48;64.60;101311.58;1825190;78;20936;-86
2022/09/08 03:07:59;;;;;;;10.38;5.30;;;;;;;9.45;64.67;101311.26;1825212;78;20934;-86
2022/09/08 03:10:26;;;;;;;6.80;4.70;;;;;;;9.44;64.77;101309.55;1825243;78;21993;-86
2022/09/08 03:12:54;;;;;;;10.18;5.30;;;;;;;9.44;64.82;101307.39;1825217;78;20880;-86
2022/09/08 03:15:23;;;;;;;9.38;4.80;;;;;;;9.41;64.87;101303.61;1825325;78;20887;-86
2022/09/08 03:17:50;;;;;;;10.45;4.80;;;;;;;9.39;64.96;101304.13;1825319;78;20869;-84
2022/09/08 03:20:17;;;;;;;10.32;5.33;;;;;;;9.38;65.06;101308.49;1825310;78;20931;-83
2022/09/08 03:22:44;;;;;;;17.00;5.60;;;;;;;9.37;65.11;101307.28;1825148;78;21826;-84
2022/09/08 03:25:10;;;;;;;10.00;5.67;;;;;;;9.36;65.15;101310.80;1825134;78;20982;-87
2022/09/08 03:27:37;;;;;;;8.50;5.67;;;;;;;9.34;65.21;101305.18;1825224;78;20959;-87
2022/09/08 03:30:05;;;;;;;6.97;4.97;;;;;;;9.34;65.26;101314.81;1825095;78;21377;-86
2022/09/08 03:32:36;;;;;;;12.37;4.78;;;;;;;9.34;65.29;101320.89;1821741;78;20876;-87
2022/09/08 03:35:07;;;;;;;11.65;4.65;;;;;;;9.33;65.32;101311.31;1821907;78;21205;-86
2022/09/08 03:37:35;;;;;;;9.90;5.12;;;;;;;9.31;65.30;101317.08;1821716;78;20880;-84
2022/09/08 03:40:06;;;;;;;10.18;5.80;;;;;;;9.31;65.38;101321.00;1821701;78;21393;-86
2022/09/08 03:42:35;;;;;;;13.22;6.00;;;;;;;9.33;65.49;101322.25;1821906;78;20871;-88
2022/09/08 03:45:04;;;;;;;8.15;5.03;;;;;;;9.33;65.67;101316.55;1821853;78;21041;-88
2022/09/08 03:47:31;;;;;;;9.33;5.35;;;;;;;9.35;65.73;101309.95;1822294;78;21208;-86
2022/09/08 03:49:59;;;;;;;9.65;4.83;;;;;;;9.37;65.76;101313.35;1821828;78;20967;-87
2022/09/08 03:52:26;;;;;;;9.98;4.65;;;;;;;9.40;65.69;101323.67;1822089;78;20915;-87
2022/09/08 03:54:52;;;;;;;9.78;4.40;;;;;;;9.43;65.53;101324.87;1821928;78;20888;-85
2022/09/08 03:57:22;;;;;;;9.13;4.60;;;;;;;9.46;65.34;101314.72;1821915;78;21440;-86
2022/09/08 03:59:49;;;;;;;9.23;4.72;;;;;;;9.50;65.16;101322.83;1821630;78;21101;-83
2022/09/08 04:02:16;;;;;;;8.28;4.85;;;;;;;9.55;64.98;101323.47;1821518;78;20836;-87
2022/09/08 04:04:43;;;;;;;17.20;4.92;;;;;;;9.61;64.82;101315.34;1821683;78;21369;-87
2022/09/08 04:07:10;;;;;;;8.33;4.12;;;;;;;9.68;64.51;101314.61;1821623;78;21468;-87
2022/09/08 04:09:38;;;;;;;10.72;6.25;;;;;;;9.73;64.36;101308.23;1821666;78;20974;-88
2022/09/08 04:12:05;;;;;;;11.85;4.92;;;;;;;9.78;64.10;101313.26;1821688;78;21199;-87
2022/09/08 04:14:32;;;;;;;10.82;4.90;;;;;;;9.84;63.96;101311.67;1821632;78;20879;-86
2022/09/08 04:17:00;;;;;;;9.68;6.85;;;;;;;9.91;63.84;101318.33;1821726;78;20923;-86
2022/09/08 04:19:27;;;;;;;5.85;4.15;;;;;;;9.97;63.51;101323.77;1821737;78;21018;-87
2022/09/08 04:21:54;;;;;;;5.20;4.08;;;;;;;10.05;63.29;101323.39;1821787;78;20824;-87
2022/09/08 04:24:20;;;;;;;11.65;4.70;;;;;;;10.12;63.01;101323.52;1821879;78;21117;-86
2022/09/08 04:26:47;;;;;;;7.90;3.95;;;;;;;10.20;62.74;101331.01;1821739;78;20971;-87
2022/09/08 04:29:14;;;;;;;11.68;4.37;;;;;;;10.28;62.54;101334.13;1821770;78;20899;-84
2022/09/08 04:31:41;;;;;;;6.95;4.62;;;;;;;10.35;62.38;101333.78;1821625;78;20912;-85
2022/09/08 04:34:08;;;;;;;7.37;3.65;;;;;;;10.43;62.25;101336.05;1824257;78;20970;-86
2022/09/08 04:36:34;;;;;;;7.53;3.77;;;;;;;10.51;62.04;101332.58;1822051;78;21745;-86
2022/09/08 04:39:01;;;;;;;7.33;4.53;;;;;;;10.61;61.84;101338.25;1821544;78;21412;-86
2022/09/08 04:41:31;;;;;;;8.73;4.37;;;;;;;10.72;61.80;101340.36;1821726;78;20931;-87
2022/09/08 04:44:00;;;;;;;10.88;6.80;;;;;;;10.82;61.70;101340.73;1822026;78;20924;-87
2022/09/08 04:46:28;;;;;;;8.88;4.92;;;;;;;10.95;61.71;101346.61;1821901;78;20931;-87
2022/09/08 04:48:55;;;;;;;10.25;3.65;;;;;;;11.12;62.08;101351.49;1822767;78;21232;-86
2022/09/08 04:51:23;;;;;;;7.80;4.20;;;;;;;11.37;62.20;101360.27;1824753;78;20900;-87
2022/09/08 04:53:52;;;;;;;13.98;4.22;;;;;;;11.76;62.01;101359.98;1822298;78;20892;-87
2022/09/08 04:56:20;;;;;;;9.80;4.15;;;;;;;12.24;61.30;101351.69;1821856;78;21483;-86
2022/09/08 04:58:47;;;;;;;9.63;4.33;;;;;;;12.92;60.51;101353.62;1821810;78;20998;-88
2022/09/08 05:01:19;;;;;;;9.30;4.53;;;;;;;13.62;58.49;101344.64;1821928;78;21225;-87
2022/09/08 05:03:47;;;;;;;7.58;3.92;;;;;;;14.20;55.96;101348.06;1821203;78;20911;-84
2022/09/08 05:06:15;;;;;;;9.93;4.45;;;;;;;15.51;52.21;101342.94;1821934;78;20916;-87
2022/09/08 05:08:44;;;;;;;9.60;3.95;;;;;;;15.51;52.21;101342.94;1822025;78;20904;-90
2022/09/08 05:11:10;;;;;;;7.62;4.00;;;;;;;16.26;50.92;101345.59;1822217;78;20919;-87
2022/09/08 05:13:37;;;;;;;6.67;3.15;;;;;;;17.03;48.79;101342.61;1821799;78;21133;-87
2022/09/08 05:16:13;;;;;;;7.50;4.17;;;;;;;17.79;46.84;101337.63;1821688;78;20935;-86
2022/09/08 05:18:41;;;;;;;7.47;4.50;;;;;;;18.49;45.76;101338.25;1821632;78;20880;-86
2022/09/08 05:21:08;;;;;;;10.50;4.97;;;;;;;19.16;44.71;101327.31;1821689;78;20947;-87
2022/09/08 05:23:36;;;;;;;7.90;4.28;;;;;;;19.79;43.48;101337.06;1821871;78;20951;-87
2022/09/08 05:26:06;;;;;;;8.93;4.10;;;;;;;20.37;42.26;101324.38;1821695;78;21122;-87
2022/09/08 05:28:36;;;;;;;10.30;3.67;;;;;;;20.89;41.44;101320.95;1821618;78;20879;-87
2022/09/08 05:31:04;;;;;;;5.97;3.62;;;;;;;21.38;40.01;101321.69;1822359;78;20990;-86
2022/09/08 05:33:31;;;;;;;15.50;10.90;;;;;;;21.88;39.14;101315.21;1825298;78;20907;-88
2022/09/08 05:35:58;;;;;;;11.70;5.50;;;;;;;22.40;38.06;101309.27;1825401;78;20923;-88
2022/09/08 05:38:24;;;;;;;5.90;3.20;;;;;;;22.87;37.13;101317.02;1825322;78;21876;-85
2022/09/08 05:40:51;;;;;;;5.05;3.22;;;;;;;23.31;36.38;101313.84;1825282;78;20864;-83
2022/09/08 05:43:20;;;;;;;5.60;3.15;;;;;;;23.72;36.03;101325.25;1825107;78;21436;-85
2022/09/08 05:45:49;;;;;;;3.67;3.30;;;;;;;23.92;35.36;101317.83;1825428;78;20990;-85
2022/09/08 05:48:16;;;;;;;7.35;3.22;;;;;;;23.84;35.08;101319.98;1825347;78;20880;-86
2022/09/08 05:50:45;;;;;;;20.15;15.08;;;;;;;23.81;35.21;101320.29;1825240;77;21780;-86
2022/09/08 05:53:12;;;;;;;6.28;4.45;;;;;;;23.79;35.21;101323.66;1825253;77;21333;-87
2022/09/08 05:55:40;;;;;;;5.12;2.98;;;;;;;23.76;35.27;101322.63;1825438;78;21408;-85
2022/09/08 05:58:10;;;;;;;6.83;4.83;;;;;;;23.65;35.34;101322.88;1825678;77;20943;-85
2022/09/08 06:00:37;;;;;;;8.53;4.03;;;;;;;23.56;35.45;101320.16;1825962;77;20915;-87
2022/09/08 06:03:06;;;;;;;4.53;3.25;;;;;;;23.50;35.61;101323.97;1825633;78;20888;-86
2022/09/08 06:05:34;;;;;;;4.65;2.50;;;;;;;23.55;35.63;101327.86;1825477;78;20906;-89
2022/09/08 06:08:02;;;;;;;3.08;2.60;;;;;;;23.79;35.68;101329.84;1825728;78;20884;-86
2022/09/08 06:10:35;;;;;;;4.25;2.85;;;;;;;24.00;34.93;101328.06;1825544;77;20927;-88
2022/09/08 06:12:59;;;;;;;12.68;3.72;;;;;;;24.18;34.42;101318.56;1825359;77;20943;-89
2022/09/08 06:15:25;;;;;;;4.50;2.75;;;;;;;24.36;33.93;101314.92;1825539;77;21401;-86
2022/09/08 06:17:51;;;;;;;4.42;3.12;;;;;;;24.66;33.83;101314.82;1826679;77;21342;-86
2022/09/08 06:20:18;;;;;;;4.05;2.45;;;;;;;25.07;33.75;101317.97;1826335;77;20895;-87
2022/09/08 06:22:45;;;;;;;4.47;2.70;;;;;;;25.53;33.44;101319.06;1826067;77;20954;-87
2022/09/08 06:25:11;;;;;;;4.30;2.55;;;;;;;26.00;32.83;101312.00;1798235;78;20852;-89
2022/09/08 06:27:53;;;;;;;3.83;2.35;;;;;;;26.45;32.45;101308.49;1825517;78;21168;-87
2022/09/08 06:30:20;;;;;;;3.83;2.67;;;;;;;26.90;32.09;101314.55;1810235;78;20947;-87
2022/09/08 06:33:04;;;;;;;4.03;2.83;;;;;;;27.32;31.12;101313.98;1822879;78;21092;-88
2022/09/08 06:35:47;;;;;;;5.05;2.35;;;;;;;27.73;30.49;101311.33;1822216;78;20892;-87
2022/09/08 06:38:31;;;;;;;3.67;2.60;;;;;;;28.09;29.70;101309.49;1811300;78;20848;-87
2022/09/08 06:41:03;;;;;;;5.17;2.87;;;;;;;28.45;28.36;101309.95;1822284;78;21247;-86
2022/09/08 06:43:54;;;;;;;6.20;3.20;;;;;;;28.82;27.98;101308.03;1822775;78;28462;-87
2022/09/08 06:46:25;;;;;;;5.12;2.80;;;;;;;29.16;27.06;101312.35;1822191;78;20824;-88
2022/09/08 06:48:53;;;;;;;7.10;3.50;;;;;;;29.46;25.95;101304.81;1822420;78;20923;-87
2022/09/08 06:51:43;;;;;;;8.25;2.80;;;;;;;29.71;25.41;101304.67;1822764;78;20896;-87
2022/09/08 06:54:34;;;;;;;6.50;3.00;;;;;;;29.96;24.88;101305.48;1822862;78;21388;-87
2022/09/08 06:57:28;;;;;;;6.80;4.83;;;;;;;30.13;24.45;101301.89;1822405;78;20879;-88
2022/09/08 07:00:19;;;;;;;10.20;4.05;;;;;;;30.32;23.70;101305.16;1821928;78;21408;-88
2022/09/08 07:02:57;;;;;;;6.45;3.50;;;;;;;30.43;23.52;101299.66;1822121;78;20884;-88
2022/09/08 07:05:41;;;;;;;5.37;3.25;;;;;;;30.67;23.30;101306.87;1822073;78;20931;-88
2022/09/08 07:08:23;;;;;;;5.47;2.92;;;;;;;30.78;22.98;101314.36;1822335;78;21142;-89
2022/09/08 07:11:10;;;;;;;5.90;3.42;;;;;;;30.90;23.02;101318.13;1822041;78;20935;-89
2022/09/08 07:13:57;;;;;;;5.30;3.65;;;;;;;31.05;22.79;101315.72;1823069;78;20864;-88
2022/09/08 07:16:44;;;;;;;5.33;2.58;;;;;;;31.16;22.52;101310.48;1823999;77;20970;-87
2022/09/08 07:19:25;;;;;;;13.45;12.25;;;;;;;31.29;22.47;101310.98;1783797;79;20929;-87
2022/09/08 07:22:18;;;;;;;9.40;3.90;;;;;;;31.59;22.20;101311.84;1781796;80;21129;-87
2022/09/08 07:24:45;;;;;;;14.73;3.42;;;;;;;31.71;21.93;101307.95;1782335;80;20886;-88
2022/09/08 07:27:13;;;;;;;3.50;3.20;;;;;;;31.84;21.84;101306.54;1782304;80;20869;-87
2022/09/08 07:29:48;;;;;;;4.20;3.12;;;;;;;31.93;21.53;101307.13;1782024;79;21059;-89
2022/09/08 07:32:21;;;;;;;6.40;2.83;;;;;;;32.06;21.18;101310.30;1772881;80;20871;-88
2022/09/08 07:34:55;;;;;;;10.23;3.17;;;;;;;32.12;21.41;101312.14;1761157;81;21194;-88
2022/09/08 07:37:44;;;;;;;5.15;2.60;;;;;;;32.21;21.46;101309.47;1761390;79;20911;-87
2022/09/08 07:40:42;;;;;;;5.92;2.98;;;;;;;32.35;21.31;101305.63;1761287;81;21022;-89
2022/09/08 07:43:11;;;;;;;5.62;3.30;;;;;;;32.44;21.14;101308.91;1761383;80;20990;-88
2022/09/08 07:45:51;;;;;;;7.40;3.00;;;;;;;32.51;20.48;101305.61;1761240;80;21001;-88
2022/09/08 07:48:35;;;;;;;5.00;2.92;;;;;;;32.58;20.24;101302.34;1761724;80;21295;-88
2022/09/08 07:51:12;;;;;;;3.52;2.33;;;;;;;32.59;19.95;101293.16;1762580;81;20907;-88
2022/09/08 07:54:07;;;;;;;6.62;3.00;;;;;;;32.65;19.95;101290.06;1762774;79;20891;-88
2022/09/08 07:56:45;;;;;;;2.80;2.40;;;;;;;32.70;19.69;101286.14;1770977;79;21009;-88
2022/09/08 07:59:32;;;;;;;6.60;2.45;;;;;;;32.86;19.45;101283.91;1798745;79;20911;-88
2022/09/08 08:02:26;;;;;;;3.45;2.47;;;;;;;33.06;19.41;101268.78;1798481;78;21161;-88
2022/09/08 08:05:21;;;;;;;7.85;2.90;;;;;;;33.16;18.51;101269.93;1799013;79;20887;-89
2022/09/08 08:08:04;;;;;;;5.37;2.25;;;;;;;33.22;18.43;101270.39;1770115;79;21006;-89
2022/09/08 08:10:49;;;;;;;4.03;2.60;;;;;;;33.26;18.56;101265.84;1769418;79;20970;-88
2022/09/08 08:13:27;;;;;;;6.65;3.05;;;;;;;33.39;18.30;101263.80;1788056;78;20832;-89
2022/09/08 08:16:09;;;;;;;4.58;2.58;;;;;;;33.53;17.73;101270.42;1798168;77;21131;-90
2022/09/08 08:18:51;;;;;;;11.50;2.65;;;;;;;33.69;17.62;101261.68;1763591;79;20914;-88
2022/09/08 08:21:31;;;;;;;9.00;2.75;;;;;;;33.90;17.35;101263.58;1762553;79;21029;-90
2022/09/08 08:24:35;;;;;;;3.05;2.65;;;;;;;33.96;17.45;101260.77;1762274;79;21002;-87
2022/09/08 08:27:24;;;;;;;5.45;2.35;;;;;;;33.99;17.21;101256.74;1763161;79;20922;-88
2022/09/08 08:30:02;;;;;;;2.50;2.22;;;;;;;33.95;16.63;101258.27;1758572;79;21214;-90
2022/09/08 08:32:42;;;;;;;6.22;2.72;;;;;;;33.92;16.57;101253.30;1763624;79;20926;-90
2022/09/08 08:35:30;;;;;;;3.17;2.42;;;;;;;33.82;16.39;101252.51;1763858;79;20950;-91
2022/09/08 08:37:57;;;;;;;3.33;2.60;;;;;;;33.58;16.47;101255.13;1763650;79;21060;-88
2022/09/08 08:40:47;;;;;;;8.50;2.83;;;;;;;33.56;16.62;101240.89;1765105;79;20919;-89
2022/09/08 08:43:40;;;;;;;5.92;2.95;;;;;;;33.71;16.50;101241.05;1762219;78;21080;-88
2022/09/08 08:46:31;;;;;;;11.63;2.77;;;;;;;33.86;16.37;101237.34;1738011;80;20937;-89
2022/09/08 08:49:33;;;;;;;7.22;3.05;;;;;;;33.83;16.31;101241.37;1738853;81;20922;-89
2022/09/08 08:52:24;;;;;;;5.92;2.85;;;;;;;33.91;16.26;101244.84;1737786;81;20946;-88
2022/09/08 08:55:03;;;;;;;6.40;2.80;;;;;;;33.96;16.29;101239.53;1728617;80;21084;-89
2022/09/08 08:57:41;;;;;;;5.60;2.85;;;;;;;34.00;16.15;101227.12;1676826;83;21153;-89
2022/09/08 09:00:20;;;;;;;8.70;2.85;;;;;;;34.05;16.10;101229.42;1677034;83;20907;-87
2022/09/08 09:03:14;;;;;;;3.85;2.72;;;;;;;34.26;15.88;101221.28;1676931;83;20991;-90
2022/09/08 09:06:01;;;;;;;4.10;2.27;;;;;;;34.29;15.80;101221.88;1677019;83;20983;-89
2022/09/08 09:09:01;;;;;;;5.75;3.00;;;;;;;34.38;15.56;101216.37;1677047;83;20971;-87
2022/09/08 09:11:40;;;;;;;11.70;2.98;;;;;;;34.39;15.68;101215.29;1676917;83;21228;-90
2022/09/08 09:14:36;;;;;;;4.75;2.42;;;;;;;34.37;15.69;101218.23;1677290;83;21358;-89
2022/09/08 09:17:39;;;;;;;4.83;2.77;;;;;;;34.25;15.51;101215.52;1729030;77;20859;-87
2022/09/08 09:20:27;;;;;;;5.80;2.47;;;;;;;34.32;15.65;101216.77;1800517;78;20918;-88
2022/09/08 09:23:13;;;;;;;4.22;2.90;;;;;;;34.29;15.68;101214.52;1762690;81;21487;-91
2022/09/08 09:25:47;;;;;;;3.25;2.90;;;;;;;34.35;15.59;101216.82;1762766;81;21443;-89
2022/09/08 09:28:45;;;;;;;4.30;2.72;;;;;;;34.59;15.52;101211.67;1758506;79;20910;-89
2022/09/08 09:31:44;;;;;;;6.15;2.62;;;;;;;34.62;15.54;101224.05;1762826;79;21559;-88
2022/09/08 09:34:43;;;;;;;7.87;2.92;;;;;;;34.58;15.72;101222.28;1763958;79;21002;-87
2022/09/08 09:37:46;;;;;;;4.60;2.95;;;;;;;34.44;15.82;101220.84;1763467;79;21001;-88
2022/09/08 09:40:37;;;;;;;8.05;3.12;;;;;;;34.50;15.64;101223.17;1762668;80;22117;-89
2022/09/08 09:43:24;;;;;;;2.72;2.00;;;;;;;34.62;15.87;101223.50;1763005;80;20923;-89
2022/09/08 09:48:12;;;;;;;3.20;2.90;;;;;;;34.70;15.55;101221.48;1798433;79;23235;-88
2022/09/08 09:51:26;;;;;;;5.10;3.25;;;;;;;34.62;15.71;101221.32;1758798;80;20903;-88
2022/09/08 09:54:25;;;;;;;4.83;3.17;;;;;;;34.45;15.75;101221.98;1759513;81;21220;-89
2022/09/08 09:57:37;;;;;;;3.92;2.08;;;;;;;34.22;15.58;101230.16;1758984;80;21023;-89
2022/09/08 10:00:28;;;;;;;7.10;2.85;;;;;;;33.85;15.72;101235.17;1759228;80;20900;-88
2022/09/08 10:03:19;;;;;;;4.65;2.83;;;;;;;33.41;16.24;101235.84;1758187;80;20951;-88
2022/09/08 10:06:23;;;;;;;3.55;2.35;;;;;;;33.03;16.18;101234.17;1723959;80;20853;-89
2022/09/08 10:09:10;;;;;;;;;;;;;;;32.53;16.43;101227.50;1761380;80;21290;-89
2022/09/08 10:11:51;;;;;;;6.22;2.60;;;;;;;32.11;17.17;101225.00;1759188;81;20092;-89
2022/09/08 10:14:59;;;;;;;4.92;2.65;;;;;;;31.71;17.48;101227.95;1733541;78;20856;-88
2022/09/08 10:17:38;;;;;;;4.40;2.17;;;;;;;31.40;17.82;101230.88;1760164;81;20880;-89
2022/09/08 10:20:42;;;;;;;2.83;2.47;;;;;;;31.02;18.13;101230.81;1759268;80;20976;-89
2022/09/08 10:23:31;;;;;;;9.35;2.45;;;;;;;30.80;17.99;101228.85;1758952;80;21354;-88
2022/09/08 10:26:12;;;;;;;9.38;2.72;;;;;;;30.43;18.65;101232.52;1758863;80;20931;-89
2022/09/08 10:29:18;;;;;;;45.20;3.98;;;;;;;30.24;18.83;101228.23;1759052;80;20920;-89
2022/09/08 10:32:07;;;;;;;5.75;2.40;;;;;;;30.13;18.97;101228.84;1758576;80;20896;-89
2022/09/08 10:35:16;;;;;;;5.90;2.05;;;;;;;30.06;19.49;101227.98;1758767;81;21465;-87
2022/09/08 10:38:21;;;;;;;5.12;2.25;;;;;;;30.05;19.38;101231.73;1759018;80;21900;-88
2022/09/08 10:40:58;;;;;;;4.53;2.02;;;;;;;29.85;19.26;101239.81;1758840;80;20924;-89
2022/09/08 10:43:40;;;;;;;5.00;2.40;;;;;;;29.70;19.33;101234.56;1758898;80;20987;-87
2022/09/08 10:46:54;;;;;;;6.97;2.08;;;;;;;29.48;19.61;101234.69;1754305;80;20913;-88
2022/09/08 10:49:46;;;;;;;4.72;1.95;;;;;;;29.29;19.92;101233.55;1745634;81;21007;-88
2022/09/08 10:52:32;;;;;;;4.25;1.98;;;;;;;29.04;20.22;101240.47;1745819;81;21235;-90
2022/09/08 10:55:36;;;;;;;4.67;2.30;;;;;;;28.79;20.13;101242.29;1747282;79;20926;-89
2022/09/08 10:58:54;;;;;;;3.98;2.72;;;;;;;28.61;20.55;101245.97;1723451;78;21189;-86
2022/09/08 11:01:43;;;;;;;6.97;2.67;;;;;;;28.26;21.02;101231.04;1747361;78;21008;-89
2022/09/08 11:04:33;;;;;;;16.65;3.58;;;;;;;27.76;21.35;101243.04;1747171;78;20913;-88
2022/09/08 11:07:40;;;;;;;5.05;2.35;;;;;;;27.40;22.04;101240.33;1747610;78;21207;-89
2022/09/08 11:10:52;;;;;;;4.28;3.37;;;;;;;27.14;22.50;101244.81;1747856;81;20917;-87
2022/09/08 11:13:31;;;;;;;5.33;2.40;;;;;;;26.94;22.85;101244.53;1747869;78;20920;-88
2022/09/08 11:16:44;;;;;;;3.85;2.05;;;;;;;26.83;23.05;101243.95;1738020;79;20944;-88
2022/09/08 11:19:31;;;;;;;3.15;1.92;;;;;;;26.73;22.92;101240.70;1748532;78;20983;-87
2022/09/08 11:22:40;;;;;;;3.55;2.05;;;;;;;26.67;22.91;101236.05;1747580;78;21155;-88
2022/09/08 11:25:25;;;;;;;2.98;2.17;;;;;;;26.61;23.10;101233.59;1747576;78;20896;-87
2022/09/08 11:28:23;;;;;;;4.40;2.40;;;;;;;26.56;23.16;101227.08;1747801;78;21000;-87
2022/09/08 11:31:34;;;;;;;6.78;3.70;;;;;;;26.55;23.06;101229.42;1748333;78;20969;-88
2022/09/08 11:34:43;;;;;;;8.03;2.80;;;;;;;26.54;23.25;101226.39;1747536;78;20944;-87
2022/09/08 11:37:37;;;;;;;3.08;1.87;;;;;;;26.52;23.03;101224.39;1747377;78;21256;-88
2022/09/08 11:40:35;;;;;;;8.80;2.20;;;;;;;26.63;23.26;101223.98;1747088;81;21004;-88
2022/09/08 11:43:19;;;;;;;3.17;1.27;;;;;;;26.78;23.05;101225.35;1747439;78;21011;-88
2022/09/08 11:46:03;;;;;;;5.00;2.10;;;;;;;26.95;22.88;101226.86;1746645;80;21410;-89
2022/09/08 11:48:53;;;;;;;5.15;1.92;;;;;;;26.96;23.05;101224.99;1727232;81;20897;-87
2022/09/08 11:51:56;;;;;;;3.33;2.12;;;;;;;26.96;23.20;101223.13;1745978;81;21893;-86
2022/09/08 11:55:03;;;;;;;3.85;1.90;;;;;;;26.83;23.54;101222.42;1737952;81;20950;-87
2022/09/08 11:57:58;;;;;;;7.67;2.30;;;;;;;26.74;23.53;101222.18;1720393;83;21032;-87
2022/09/08 12:00:54;;;;;;;4.15;2.30;;;;;;;26.68;23.99;101218.91;1720286;83;20948;-88
2022/09/08 12:03:35;;;;;;;1.95;1.57;;;;;;;26.61;24.36;101217.94;1720988;83;20861;-90
2022/09/08 12:06:28;;;;;;;1.72;1.50;;;;;;;26.50;24.06;101216.48;1720413;83;21144;-88
2022/09/08 12:09:03;;;;;;;4.87;2.70;;;;;;;26.36;24.28;101215.95;1720431;82;20988;-86
2022/09/08 12:11:50;;;;;;;4.80;2.12;;;;;;;26.21;24.96;101211.39;1719653;83;21035;-86
2022/09/08 12:14:45;;;;;;;7.80;2.35;;;;;;;26.05;25.55;101219.55;1719453;83;20908;-88
2022/09/08 12:17:53;;;;;;;2.92;2.10;;;;;;;25.85;25.81;101216.47;1720056;83;21354;-87
2022/09/08 12:20:53;;;;;;;5.80;2.83;;;;;;;25.65;26.33;101213.40;1718930;83;21296;-90
2022/09/08 12:23:46;;;;;;;6.35;2.10;;;;;;;25.48;26.87;101212.67;1720084;83;20876;-88